Ashland, Montana
Current Conditions -  °F | °C
As of 4:53 AM on Wednesday 28 Jan 2015 (Local Time) from KMLS Reporting Station
Few Clouds Few Clouds  
Wind Chill: 33°   Ceiling: Unl
Heat Index: 39°   Visibility: 10mi
Dew Point: 32°   Wind: 8mph
Humidity: 76%   Direction: 260°W
Pressure: 29.86"   Gusts: NA
Location:  45.62°N, 106.31°W
Report Text: KMLS 281153Z AUTO 26007KT 10SM FEW120 04/00 A2986 RMK AO2 SLP116 T00390000 10044 20000 53018
Loading
Personal Weather Stations






























Interactive Weather Map New forecast layout! Learn more

10-Day Weather Forecast

Advertisements
Track Severe Weather on mobile